sensor_id;sensor_type;location;lat;lon;timestamp;pressure;altitude;pressure_sealevel;temperature;humidity
11343;BME280;5726;42.160;24.746;2023-04-06T00:00:34;99344.53;;;5.71;81.22
11343;BME280;5726;42.160;24.746;2023-04-06T00:03:00;99348.19;;;5.50;82.08
11343;BME280;5726;42.160;24.746;2023-04-06T00:05:25;99336.41;;;5.36;82.17
11343;BME280;5726;42.160;24.746;2023-04-06T00:07:52;99334.25;;;5.33;82.57
11343;BME280;5726;42.160;24.746;2023-04-06T00:10:19;99334.78;;;5.30;82.40
11343;BME280;5726;42.160;24.746;2023-04-06T00:12:44;99331.06;;;5.31;82.30
11343;BME280;5726;42.160;24.746;2023-04-06T00:15:10;99327.31;;;5.27;82.38
11343;BME280;5726;42.160;24.746;2023-04-06T00:17:36;99327.84;;;5.24;82.34
11343;BME280;5726;42.160;24.746;2023-04-06T00:20:01;99332.38;;;5.24;82.54
11343;BME280;5726;42.160;24.746;2023-04-06T00:22:27;99340.53;;;5.13;82.69
11343;BME280;5726;42.160;24.746;2023-04-06T00:24:52;99327.22;;;5.08;82.62
11343;BME280;5726;42.160;24.746;2023-04-06T00:27:18;99322.09;;;4.91;83.41
11343;BME280;5726;42.160;24.746;2023-04-06T00:29:44;99324.47;;;4.88;83.51
11343;BME280;5726;42.160;24.746;2023-04-06T00:32:09;99315.44;;;4.89;83.44
11343;BME280;5726;42.160;24.746;2023-04-06T00:34:35;99321.28;;;4.91;83.76
11343;BME280;5726;42.160;24.746;2023-04-06T00:37:00;99316.47;;;4.83;83.81
11343;BME280;5726;42.160;24.746;2023-04-06T00:39:26;99317.50;;;4.82;83.64
11343;BME280;5726;42.160;24.746;2023-04-06T00:41:52;99314.06;;;4.81;83.79
11343;BME280;5726;42.160;24.746;2023-04-06T00:44:18;99311.75;;;4.95;83.79
11343;BME280;5726;42.160;24.746;2023-04-06T00:46:44;99307.59;;;5.19;82.83
11343;BME280;5726;42.160;24.746;2023-04-06T00:49:10;99311.38;;;5.27;81.86
11343;BME280;5726;42.160;24.746;2023-04-06T00:51:35;99310.78;;;5.11;82.60
11343;BME280;5726;42.160;24.746;2023-04-06T00:54:01;99315.44;;;4.89;83.39
11343;BME280;5726;42.160;24.746;2023-04-06T00:56:26;99305.88;;;4.88;83.69
11343;BME280;5726;42.160;24.746;2023-04-06T00:58:53;99305.88;;;4.93;84.01
11343;BME280;5726;42.160;24.746;2023-04-06T01:01:18;99307.72;;;4.87;83.99
11343;BME280;5726;42.160;24.746;2023-04-06T01:03:44;99301.59;;;4.82;84.00
11343;BME280;5726;42.160;24.746;2023-04-06T01:06:12;99293.34;;;4.83;83.67
11343;BME280;5726;42.160;24.746;2023-04-06T01:08:38;99295.78;;;4.90;83.42
11343;BME280;5726;42.160;24.746;2023-04-06T01:11:03;99304.50;;;4.80;83.76
11343;BME280;5726;42.160;24.746;2023-04-06T01:13:29;99296.50;;;4.75;84.24
11343;BME280;5726;42.160;24.746;2023-04-06T01:15:54;99293.63;;;4.82;83.98
11343;BME280;5726;42.160;24.746;2023-04-06T01:18:26;99292.06;;;4.86;83.54
11343;BME280;5726;42.160;24.746;2023-04-06T01:20:51;99291.31;;;5.00;82.77
11343;BME280;5726;42.160;24.746;2023-04-06T01:23:17;99300.03;;;4.91;83.10
11343;BME280;5726;42.160;24.746;2023-04-06T01:25:42;99292.34;;;4.89;83.70
11343;BME280;5726;42.160;24.746;2023-04-06T01:28:08;99289.94;;;4.88;83.67
11343;BME280;5726;42.160;24.746;2023-04-06T01:30:33;99286.69;;;4.81;83.93
11343;BME280;5726;42.160;24.746;2023-04-06T01:32:58;99289.44;;;4.96;83.61
11343;BME280;5726;42.160;24.746;2023-04-06T01:35:26;99281.72;;;4.89;83.75
11343;BME280;5726;42.160;24.746;2023-04-06T01:37:52;99285.19;;;4.95;83.73
11343;BME280;5726;42.160;24.746;2023-04-06T01:40:17;99276.59;;;4.78;84.17
11343;BME280;5726;42.160;24.746;2023-04-06T01:42:43;99275.44;;;5.05;83.44
11343;BME280;5726;42.160;24.746;2023-04-06T01:45:09;99269.69;;;4.77;83.85
11343;BME280;5726;42.160;24.746;2023-04-06T01:47:34;99266.47;;;4.70;84.39
11343;BME280;5726;42.160;24.746;2023-04-06T01:50:00;99262.97;;;4.65;84.88
11343;BME280;5726;42.160;24.746;2023-04-06T01:52:25;99267.75;;;4.68;84.57
11343;BME280;5726;42.160;24.746;2023-04-06T01:54:51;99262.19;;;4.64;84.79
11343;BME280;5726;42.160;24.746;2023-04-06T01:57:16;99263.72;;;4.60;84.94
11343;BME280;5726;42.160;24.746;2023-04-06T01:59:41;99251.84;;;4.68;84.76
11343;BME280;5726;42.160;24.746;2023-04-06T02:02:07;99260.00;;;4.56;84.87
11343;BME280;5726;42.160;24.746;2023-04-06T02:04:32;99255.16;;;4.48;84.96
11343;BME280;5726;42.160;24.746;2023-04-06T02:06:58;99257.31;;;4.51;85.03
11343;BME280;5726;42.160;24.746;2023-04-06T02:09:23;99249.81;;;4.43;85.39
11343;BME280;5726;42.160;24.746;2023-04-06T02:11:48;99253.75;;;4.36;85.98
11343;BME280;5726;42.160;24.746;2023-04-06T02:14:14;99256.00;;;4.54;84.64
11343;BME280;5726;42.160;24.746;2023-04-06T02:16:40;99253.09;;;4.55;84.81
11343;BME280;5726;42.160;24.746;2023-04-06T02:19:05;99249.94;;;4.63;84.40
11343;BME280;5726;42.160;24.746;2023-04-06T02:21:31;99254.19;;;4.59;84.34
11343;BME280;5726;42.160;24.746;2023-04-06T02:23:56;99256.19;;;4.42;84.98
11343;BME280;5726;42.160;24.746;2023-04-06T02:26:21;99253.34;;;4.54;84.66
11343;BME280;5726;42.160;24.746;2023-04-06T02:28:47;99269.81;;;4.56;84.86
11343;BME280;5726;42.160;24.746;2023-04-06T02:31:12;99263.47;;;4.62;85.02
11343;BME280;5726;42.160;24.746;2023-04-06T02:33:40;99266.53;;;4.80;84.42
11343;BME280;5726;42.160;24.746;2023-04-06T02:36:05;99258.75;;;4.69;84.75
11343;BME280;5726;42.160;24.746;2023-04-06T02:38:31;99271.44;;;4.62;85.05
11343;BME280;5726;42.160;24.746;2023-04-06T02:40:56;99268.22;;;4.55;85.75
11343;BME280;5726;42.160;24.746;2023-04-06T02:43:21;99268.41;;;4.43;86.15
11343;BME280;5726;42.160;24.746;2023-04-06T02:45:47;99277.88;;;4.34;86.35
11343;BME280;5726;42.160;24.746;2023-04-06T02:48:12;99269.41;;;4.37;86.88
11343;BME280;5726;42.160;24.746;2023-04-06T02:50:38;99267.00;;;4.31;86.90
11343;BME280;5726;42.160;24.746;2023-04-06T02:53:03;99274.44;;;4.34;87.08
11343;BME280;5726;42.160;24.746;2023-04-06T02:55:28;99271.06;;;4.43;86.56
11343;BME280;5726;42.160;24.746;2023-04-06T02:57:54;99266.19;;;3.99;88.31
11343;BME280;5726;42.160;24.746;2023-04-06T03:00:19;99270.41;;;4.27;87.55
11343;BME280;5726;42.160;24.746;2023-04-06T03:02:46;99268.72;;;4.16;87.42
11343;BME280;5726;42.160;24.746;2023-04-06T03:05:11;99262.97;;;4.28;86.98
11343;BME280;5726;42.160;24.746;2023-04-06T03:07:36;99268.56;;;4.32;86.72
11343;BME280;5726;42.160;24.746;2023-04-06T03:10:02;99264.84;;;4.28;86.62
11343;BME280;5726;42.160;24.746;2023-04-06T03:12:27;99259.28;;;4.29;86.88
11343;BME280;5726;42.160;24.746;2023-04-06T03:14:53;99264.28;;;4.26;87.16
11343;BME280;5726;42.160;24.746;2023-04-06T03:17:18;99267.88;;;4.41;86.35
11343;BME280;5726;42.160;24.746;2023-04-06T03:19:44;99268.81;;;4.30;86.48
11343;BME280;5726;42.160;24.746;2023-04-06T03:22:09;99261.22;;;4.39;86.43
11343;BME280;5726;42.160;24.746;2023-04-06T03:24:34;99261.22;;;4.08;87.57
11343;BME280;5726;42.160;24.746;2023-04-06T03:27:00;99260.63;;;4.01;88.29
11343;BME280;5726;42.160;24.746;2023-04-06T03:29:25;99270.81;;;4.14;87.91
11343;BME280;5726;42.160;24.746;2023-04-06T03:31:52;99263.88;;;4.08;88.13
11343;BME280;5726;42.160;24.746;2023-04-06T03:34:17;99264.50;;;4.20;87.70
11343;BME280;5726;42.160;24.746;2023-04-06T03:36:43;99260.81;;;4.21;87.76
11343;BME280;5726;42.160;24.746;2023-04-06T03:39:08;99263.13;;;4.12;88.55
11343;BME280;5726;42.160;24.746;2023-04-06T03:41:34;99252.09;;;4.25;87.83
11343;BME280;5726;42.160;24.746;2023-04-06T03:43:59;99273.72;;;4.12;88.01
11343;BME280;5726;42.160;24.746;2023-04-06T03:46:24;99262.66;;;4.20;88.25
11343;BME280;5726;42.160;24.746;2023-04-06T03:48:50;99270.97;;;4.33;87.45
11343;BME280;5726;42.160;24.746;2023-04-06T03:51:16;99273.00;;;4.22;87.78
11343;BME280;5726;42.160;24.746;2023-04-06T03:53:41;99258.28;;;4.35;87.65
11343;BME280;5726;42.160;24.746;2023-04-06T03:56:07;99259.84;;;4.36;87.70
11343;BME280;5726;42.160;24.746;2023-04-06T03:58:32;99262.00;;;4.39;87.37
11343;BME280;5726;42.160;24.746;2023-04-06T04:00:58;99258.09;;;4.16;88.98
11343;BME280;5726;42.160;24.746;2023-04-06T04:03:23;99263.13;;;4.12;89.63
11343;BME280;5726;42.160;24.746;2023-04-06T04:05:49;99262.91;;;4.19;89.35
11343;BME280;5726;42.160;24.746;2023-04-06T04:08:15;99266.88;;;4.52;87.99
11343;BME280;5726;42.160;24.746;2023-04-06T04:10:41;99260.13;;;4.76;87.55
11343;BME280;5726;42.160;24.746;2023-04-06T04:13:06;99258.66;;;5.05;85.95
11343;BME280;5726;42.160;24.746;2023-04-06T04:15:31;99256.66;;;5.31;85.05
11343;BME280;5726;42.160;24.746;2023-04-06T04:17:57;99243.41;;;5.46;84.21
11343;BME280;5726;42.160;24.746;2023-04-06T04:20:22;99257.59;;;5.76;82.52
11343;BME280;5726;42.160;24.746;2023-04-06T04:22:48;99243.47;;;5.71;82.62
11343;BME280;5726;42.160;24.746;2023-04-06T04:25:13;99256.22;;;5.69;82.46
11343;BME280;5726;42.160;24.746;2023-04-06T04:27:39;99258.13;;;5.88;82.04
11343;BME280;5726;42.160;24.746;2023-04-06T04:30:05;99263.50;;;6.13;80.57
11343;BME280;5726;42.160;24.746;2023-04-06T04:32:31;99271.72;;;5.82;81.32
11343;BME280;5726;42.160;24.746;2023-04-06T04:34:57;99277.59;;;5.89;82.75
11343;BME280;5726;42.160;24.746;2023-04-06T04:37:22;99258.41;;;5.82;81.98
11343;BME280;5726;42.160;24.746;2023-04-06T04:39:48;99264.69;;;5.51;82.23
11343;BME280;5726;42.160;24.746;2023-04-06T04:42:13;99265.16;;;5.28;83.89
11343;BME280;5726;42.160;24.746;2023-04-06T04:44:38;99261.66;;;5.23;84.00
11343;BME280;5726;42.160;24.746;2023-04-06T04:47:04;99248.16;;;5.34;83.88
11343;BME280;5726;42.160;24.746;2023-04-06T04:49:30;99256.97;;;5.50;83.95
11343;BME280;5726;42.160;24.746;2023-04-06T04:51:55;99258.31;;;5.57;83.50
11343;BME280;5726;42.160;24.746;2023-04-06T04:54:21;99257.78;;;5.55;85.93
11343;BME280;5726;42.160;24.746;2023-04-06T04:56:46;99256.22;;;5.59;83.78
11343;BME280;5726;42.160;24.746;2023-04-06T04:59:12;99252.47;;;5.50;83.54
11343;BME280;5726;42.160;24.746;2023-04-06T05:01:37;99250.28;;;5.42;83.19
11343;BME280;5726;42.160;24.746;2023-04-06T05:04:03;99248.09;;;5.15;84.40
11343;BME280;5726;42.160;24.746;2023-04-06T05:06:28;99248.41;;;5.28;84.62
11343;BME280;5726;42.160;24.746;2023-04-06T05:08:54;99254.56;;;5.38;85.35
11343;BME280;5726;42.160;24.746;2023-04-06T05:11:19;99251.38;;;5.46;85.33
11343;BME280;5726;42.160;24.746;2023-04-06T05:13:45;99255.22;;;5.85;87.29
11343;BME280;5726;42.160;24.746;2023-04-06T05:16:10;99258.16;;;6.28;83.24
11343;BME280;5726;42.160;24.746;2023-04-06T05:18:36;99259.75;;;6.49;85.39
11343;BME280;5726;42.160;24.746;2023-04-06T05:21:01;99256.81;;;6.55;82.41
11343;BME280;5726;42.160;24.746;2023-04-06T05:23:27;99268.25;;;6.65;82.56
11343;BME280;5726;42.160;24.746;2023-04-06T05:25:52;99258.84;;;6.98;82.10
11343;BME280;5726;42.160;24.746;2023-04-06T05:28:18;99258.66;;;6.79;79.57
11343;BME280;5726;42.160;24.746;2023-04-06T05:30:44;99262.16;;;6.45;80.19
11343;BME280;5726;42.160;24.746;2023-04-06T05:33:11;99257.63;;;6.36;80.86
11343;BME280;5726;42.160;24.746;2023-04-06T05:35:37;99247.25;;;6.29;79.72
11343;BME280;5726;42.160;24.746;2023-04-06T05:38:02;99257.13;;;6.29;80.74
11343;BME280;5726;42.160;24.746;2023-04-06T05:40:28;99245.41;;;6.35;79.34
11343;BME280;5726;42.160;24.746;2023-04-06T05:42:53;99243.00;;;6.33;79.12
11343;BME280;5726;42.160;24.746;2023-04-06T05:45:19;99243.81;;;6.19;79.91
11343;BME280;5726;42.160;24.746;2023-04-06T05:47:46;99245.94;;;6.22;79.78
11343;BME280;5726;42.160;24.746;2023-04-06T05:50:13;99239.00;;;6.21;79.47
11343;BME280;5726;42.160;24.746;2023-04-06T05:52:39;99230.75;;;6.42;79.23
11343;BME280;5726;42.160;24.746;2023-04-06T05:55:08;99219.50;;;6.65;77.20
11343;BME280;5726;42.160;24.746;2023-04-06T05:57:34;99230.41;;;6.78;77.50
11343;BME280;5726;42.160;24.746;2023-04-06T05:59:59;99225.19;;;7.21;76.76
11343;BME280;5726;42.160;24.746;2023-04-06T06:02:25;99218.34;;;7.54;75.25
11343;BME280;5726;42.160;24.746;2023-04-06T06:04:50;99215.47;;;7.45;74.98
11343;BME280;5726;42.160;24.746;2023-04-06T06:07:16;99213.97;;;7.24;75.57
11343;BME280;5726;42.160;24.746;2023-04-06T06:09:42;99213.97;;;7.24;76.72
11343;BME280;5726;42.160;24.746;2023-04-06T06:12:07;99216.75;;;7.53;76.69
11343;BME280;5726;42.160;24.746;2023-04-06T06:14:33;99212.72;;;7.93;75.17
11343;BME280;5726;42.160;24.746;2023-04-06T06:16:58;99209.34;;;8.21;72.72
11343;BME280;5726;42.160;24.746;2023-04-06T06:19:23;99209.50;;;8.34;73.09
11343;BME280;5726;42.160;24.746;2023-04-06T06:21:49;99197.31;;;8.52;72.35
11343;BME280;5726;42.160;24.746;2023-04-06T06:24:15;99218.84;;;8.60;72.24
11343;BME280;5726;42.160;24.746;2023-04-06T06:26:40;99209.75;;;8.61;71.27
11343;BME280;5726;42.160;24.746;2023-04-06T06:29:06;99208.84;;;8.70;71.14
11343;BME280;5726;42.160;24.746;2023-04-06T06:31:32;99209.94;;;8.93;69.79
11343;BME280;5726;42.160;24.746;2023-04-06T06:33:57;99211.03;;;8.92;69.49
11343;BME280;5726;42.160;24.746;2023-04-06T06:36:23;99201.25;;;8.59;69.73
11343;BME280;5726;42.160;24.746;2023-04-06T06:38:48;99214.53;;;8.64;69.98
11343;BME280;5726;42.160;24.746;2023-04-06T06:41:15;99212.91;;;8.91;69.60
11343;BME280;5726;42.160;24.746;2023-04-06T06:43:40;99211.34;;;9.32;69.77
11343;BME280;5726;42.160;24.746;2023-04-06T06:46:06;99219.19;;;9.23;69.04
11343;BME280;5726;42.160;24.746;2023-04-06T06:48:31;99216.53;;;9.42;69.57
11343;BME280;5726;42.160;24.746;2023-04-06T06:50:57;99223.22;;;9.62;67.49
11343;BME280;5726;42.160;24.746;2023-04-06T06:53:23;99214.31;;;9.67;66.94
11343;BME280;5726;42.160;24.746;2023-04-06T06:55:49;99212.72;;;9.29;67.07
11343;BME280;5726;42.160;24.746;2023-04-06T06:58:17;99217.72;;;9.54;67.83
11343;BME280;5726;42.160;24.746;2023-04-06T07:00:42;99212.81;;;9.79;67.02
11343;BME280;5726;42.160;24.746;2023-04-06T07:03:08;99203.91;;;9.65;66.60
11343;BME280;5726;42.160;24.746;2023-04-06T07:05:33;99215.84;;;9.73;67.00
11343;BME280;5726;42.160;24.746;2023-04-06T07:07:59;99215.56;;;9.56;67.12
11343;BME280;5726;42.160;24.746;2023-04-06T07:10:24;99210.06;;;9.66;67.16
11343;BME280;5726;42.160;24.746;2023-04-06T07:12:51;99215.78;;;9.78;66.84
11343;BME280;5726;42.160;24.746;2023-04-06T07:15:16;99216.38;;;9.75;67.19
11343;BME280;5726;42.160;24.746;2023-04-06T07:17:42;99218.03;;;10.07;68.25
11343;BME280;5726;42.160;24.746;2023-04-06T07:20:10;99205.56;;;9.98;66.55
11343;BME280;5726;42.160;24.746;2023-04-06T07:22:36;99211.41;;;10.18;66.48
11343;BME280;5726;42.160;24.746;2023-04-06T07:25:01;99201.53;;;10.32;66.54
11343;BME280;5726;42.160;24.746;2023-04-06T07:27:27;99216.47;;;10.65;66.93
11343;BME280;5726;42.160;24.746;2023-04-06T07:29:52;99203.19;;;11.40;69.29
11343;BME280;5726;42.160;24.746;2023-04-06T07:32:18;99215.31;;;11.51;65.90
11343;BME280;5726;42.160;24.746;2023-04-06T07:34:43;99205.44;;;11.46;62.46
11343;BME280;5726;42.160;24.746;2023-04-06T07:37:10;99201.44;;;10.96;63.98
11343;BME280;5726;42.160;24.746;2023-04-06T07:39:35;99210.53;;;10.81;64.11
11343;BME280;5726;42.160;24.746;2023-04-06T07:42:01;99203.34;;;10.50;64.99
11343;BME280;5726;42.160;24.746;2023-04-06T07:44:26;99206.97;;;10.86;64.58
11343;BME280;5726;42.160;24.746;2023-04-06T07:46:52;99202.91;;;11.15;63.75
11343;BME280;5726;42.160;24.746;2023-04-06T07:49:17;99208.66;;;11.08;63.70
11343;BME280;5726;42.160;24.746;2023-04-06T07:51:43;99203.69;;;11.29;63.97
11343;BME280;5726;42.160;24.746;2023-04-06T07:54:08;99216.22;;;11.06;64.28
11343;BME280;5726;42.160;24.746;2023-04-06T07:56:34;99208.94;;;11.34;63.55
11343;BME280;5726;42.160;24.746;2023-04-06T07:58:59;99211.72;;;11.42;63.53
11343;BME280;5726;42.160;24.746;2023-04-06T08:01:25;99205.34;;;11.38;63.57
11343;BME280;5726;42.160;24.746;2023-04-06T08:03:51;99202.75;;;11.60;63.04
11343;BME280;5726;42.160;24.746;2023-04-06T08:06:16;99206.88;;;11.79;62.58
11343;BME280;5726;42.160;24.746;2023-04-06T08:08:42;99199.03;;;12.04;61.50
11343;BME280;5726;42.160;24.746;2023-04-06T08:11:08;99195.16;;;11.75;61.90
11343;BME280;5726;42.160;24.746;2023-04-06T08:13:34;99189.84;;;11.35;62.60
11343;BME280;5726;42.160;24.746;2023-04-06T08:16:00;99198.09;;;11.87;63.00
11343;BME280;5726;42.160;24.746;2023-04-06T08:18:26;99183.78;;;11.56;63.42
11343;BME280;5726;42.160;24.746;2023-04-06T08:20:51;99180.59;;;11.54;63.48
11343;BME280;5726;42.160;24.746;2023-04-06T08:23:16;99182.63;;;11.49;63.65
11343;BME280;5726;42.160;24.746;2023-04-06T08:25:43;99190.97;;;11.47;63.98
11343;BME280;5726;42.160;24.746;2023-04-06T08:28:09;99175.72;;;11.43;63.32
11343;BME280;5726;42.160;24.746;2023-04-06T08:30:35;99183.63;;;11.75;63.05
11343;BME280;5726;42.160;24.746;2023-04-06T08:33:00;99184.09;;;11.55;61.51
11343;BME280;5726;42.160;24.746;2023-04-06T08:35:27;99182.66;;;11.44;62.28
11343;BME280;5726;42.160;24.746;2023-04-06T08:37:52;99184.97;;;11.86;61.49
11343;BME280;5726;42.160;24.746;2023-04-06T08:40:18;99166.97;;;12.08;60.86
11343;BME280;5726;42.160;24.746;2023-04-06T08:42:51;99170.94;;;11.67;62.83
11343;BME280;5726;42.160;24.746;2023-04-06T08:45:17;99161.66;;;11.94;62.15
11343;BME280;5726;42.160;24.746;2023-04-06T08:47:47;99173.00;;;12.35;61.44
11343;BME280;5726;42.160;24.746;2023-04-06T08:50:14;99163.31;;;12.56;60.53
11343;BME280;5726;42.160;24.746;2023-04-06T08:52:43;99164.09;;;12.56;60.32
11343;BME280;5726;42.160;24.746;2023-04-06T08:55:08;99151.56;;;12.52;59.27
11343;BME280;5726;42.160;24.746;2023-04-06T08:57:36;99159.38;;;12.62;59.84
11343;BME280;5726;42.160;24.746;2023-04-06T09:00:01;99149.16;;;12.42;59.94
11343;BME280;5726;42.160;24.746;2023-04-06T09:02:27;99142.06;;;12.46;60.48
11343;BME280;5726;42.160;24.746;2023-04-06T09:04:53;99143.47;;;12.74;58.91
11343;BME280;5726;42.160;24.746;2023-04-06T09:07:20;99139.50;;;12.41;59.08
11343;BME280;5726;42.160;24.746;2023-04-06T09:09:46;99145.84;;;12.15;59.97
11343;BME280;5726;42.160;24.746;2023-04-06T09:14:49;99136.06;;;12.49;61.00
11343;BME280;5726;42.160;24.746;2023-04-06T09:17:26;99132.97;;;12.64;58.71
11343;BME280;5726;42.160;24.746;2023-04-06T09:19:52;99130.75;;;12.66;58.03
11343;BME280;5726;42.160;24.746;2023-04-06T09:22:18;99127.84;;;12.84;56.79
11343;BME280;5726;42.160;24.746;2023-04-06T09:24:45;99129.69;;;12.75;56.35
11343;BME280;5726;42.160;24.746;2023-04-06T09:27:11;99123.59;;;12.91;56.68
11343;BME280;5726;42.160;24.746;2023-04-06T09:29:36;99119.53;;;13.19;56.59
11343;BME280;5726;42.160;24.746;2023-04-06T09:32:03;99112.75;;;13.38;54.94
11343;BME280;5726;42.160;24.746;2023-04-06T09:34:29;99109.41;;;13.16;54.04
11343;BME280;5726;42.160;24.746;2023-04-06T09:36:55;99104.75;;;12.83;55.17
11343;BME280;5726;42.160;24.746;2023-04-06T09:39:21;99101.97;;;12.75;56.73
11343;BME280;5726;42.160;24.746;2023-04-06T09:41:50;99112.75;;;12.75;56.36
11343;BME280;5726;42.160;24.746;2023-04-06T09:44:16;99098.66;;;12.69;57.15
11343;BME280;5726;42.160;24.746;2023-04-06T09:46:43;99104.50;;;12.71;58.40
11343;BME280;5726;42.160;24.746;2023-04-06T09:49:10;99101.66;;;12.68;58.08
11343;BME280;5726;42.160;24.746;2023-04-06T09:51:45;99097.63;;;12.48;59.96
11343;BME280;5726;42.160;24.746;2023-04-06T09:54:15;99100.69;;;12.64;59.60
11343;BME280;5726;42.160;24.746;2023-04-06T09:59:14;99101.34;;;13.41;58.69
11343;BME280;5726;42.160;24.746;2023-04-06T10:01:42;99082.81;;;13.23;57.57
11343;BME280;5726;42.160;24.746;2023-04-06T10:04:26;99092.94;;;13.26;58.71
11343;BME280;5726;42.160;24.746;2023-04-06T10:06:54;99092.00;;;13.31;57.08
11343;BME280;5726;42.160;24.746;2023-04-06T10:09:25;99086.94;;;13.54;56.11
11343;BME280;5726;42.160;24.746;2023-04-06T10:11:53;99085.97;;;13.76;56.56
11343;BME280;5726;42.160;24.746;2023-04-06T10:14:20;99087.88;;;13.67;56.02
11343;BME280;5726;42.160;24.746;2023-04-06T10:16:48;99068.72;;;13.43;57.82
11343;BME280;5726;42.160;24.746;2023-04-06T10:19:24;99079.16;;;13.53;56.90
11343;BME280;5726;42.160;24.746;2023-04-06T10:21:53;99082.19;;;13.60;56.75
11343;BME280;5726;42.160;24.746;2023-04-06T10:24:20;99072.69;;;13.29;55.47
11343;BME280;5726;42.160;24.746;2023-04-06T10:26:57;99070.44;;;13.22;58.68
11343;BME280;5726;42.160;24.746;2023-04-06T10:29:23;99072.50;;;13.50;57.85
11343;BME280;5726;42.160;24.746;2023-04-06T10:31:49;99069.19;;;13.53;55.53
11343;BME280;5726;42.160;24.746;2023-04-06T10:34:14;99072.38;;;13.47;56.54
11343;BME280;5726;42.160;24.746;2023-04-06T10:36:40;99061.91;;;13.37;57.75
11343;BME280;5726;42.160;24.746;2023-04-06T10:39:06;99056.19;;;13.64;55.83
11343;BME280;5726;42.160;24.746;2023-04-06T10:41:36;99052.88;;;13.58;56.76
11343;BME280;5726;42.160;24.746;2023-04-06T10:44:06;99058.38;;;13.79;56.33
11343;BME280;5726;42.160;24.746;2023-04-06T10:46:32;99057.59;;;13.78;56.26
11343;BME280;5726;42.160;24.746;2023-04-06T10:49:09;99034.13;;;13.79;54.79
11343;BME280;5726;42.160;24.746;2023-04-06T10:51:37;99055.44;;;13.46;55.66
11343;BME280;5726;42.160;24.746;2023-04-06T10:54:03;99062.84;;;13.58;56.43
11343;BME280;5726;42.160;24.746;2023-04-06T10:56:30;99048.28;;;13.59;55.35
11343;BME280;5726;42.160;24.746;2023-04-06T10:58:57;99047.81;;;13.48;54.24
11343;BME280;5726;42.160;24.746;2023-04-06T11:01:23;99040.03;;;13.55;54.34
11343;BME280;5726;42.160;24.746;2023-04-06T11:03:54;99035.25;;;13.78;54.89
11343;BME280;5726;42.160;24.746;2023-04-06T11:06:24;99031.72;;;13.94;52.68
11343;BME280;5726;42.160;24.746;2023-04-06T11:08:51;99028.91;;;13.74;53.10
11343;BME280;5726;42.160;24.746;2023-04-06T11:11:18;99030.19;;;13.68;53.59
11343;BME280;5726;42.160;24.746;2023-04-06T11:13:46;99032.13;;;13.59;54.78
11343;BME280;5726;42.160;24.746;2023-04-06T11:16:16;99033.34;;;13.86;53.74
11343;BME280;5726;42.160;24.746;2023-04-06T11:19:03;99029.84;;;13.86;51.79
11343;BME280;5726;42.160;24.746;2023-04-06T11:21:38;99024.44;;;13.86;52.98
11343;BME280;5726;42.160;24.746;2023-04-06T11:24:08;99028.88;;;13.90;52.78
11343;BME280;5726;42.160;24.746;2023-04-06T11:26:39;99008.31;;;13.78;53.99
11343;BME280;5726;42.160;24.746;2023-04-06T11:29:05;99018.09;;;14.07;54.09
11343;BME280;5726;42.160;24.746;2023-04-06T11:31:31;99013.56;;;14.28;54.94
11343;BME280;5726;42.160;24.746;2023-04-06T11:33:57;99009.47;;;14.22;52.23
11343;BME280;5726;42.160;24.746;2023-04-06T11:36:23;99015.22;;;14.12;51.10
11343;BME280;5726;42.160;24.746;2023-04-06T11:38:48;99019.41;;;13.76;51.92
11343;BME280;5726;42.160;24.746;2023-04-06T11:41:15;99002.72;;;13.91;51.61
11343;BME280;5726;42.160;24.746;2023-04-06T11:43:46;99025.28;;;13.70;52.70
11343;BME280;5726;42.160;24.746;2023-04-06T11:46:17;99009.72;;;13.84;51.76
11343;BME280;5726;42.160;24.746;2023-04-06T11:48:45;99007.31;;;13.90;52.08
11343;BME280;5726;42.160;24.746;2023-04-06T11:51:11;99007.75;;;14.01;52.84
11343;BME280;5726;42.160;24.746;2023-04-06T11:53:44;99005.78;;;14.27;52.49
11343;BME280;5726;42.160;24.746;2023-04-06T11:56:10;99012.53;;;14.41;50.62
11343;BME280;5726;42.160;24.746;2023-04-06T11:58:35;99011.91;;;13.98;50.91
11343;BME280;5726;42.160;24.746;2023-04-06T12:01:04;99004.53;;;13.70;50.60
11343;BME280;5726;42.160;24.746;2023-04-06T12:03:30;99000.69;;;13.80;51.22
11343;BME280;5726;42.160;24.746;2023-04-06T12:05:55;99009.28;;;13.65;52.79
11343;BME280;5726;42.160;24.746;2023-04-06T12:08:21;99004.50;;;13.79;52.73
11343;BME280;5726;42.160;24.746;2023-04-06T12:10:50;99003.63;;;14.03;51.28
11343;BME280;5726;42.160;24.746;2023-04-06T12:13:15;99012.84;;;14.11;50.87
11343;BME280;5726;42.160;24.746;2023-04-06T12:15:41;98997.53;;;13.78;51.81
11343;BME280;5726;42.160;24.746;2023-04-06T12:18:06;99005.75;;;13.81;51.48
11343;BME280;5726;42.160;24.746;2023-04-06T12:20:32;98998.25;;;14.03;51.17
11343;BME280;5726;42.160;24.746;2023-04-06T12:22:57;99003.25;;;13.76;52.15
11343;BME280;5726;42.160;24.746;2023-04-06T12:25:23;99000.94;;;14.03;52.43
11343;BME280;5726;42.160;24.746;2023-04-06T12:27:48;98992.53;;;13.96;52.66
11343;BME280;5726;42.160;24.746;2023-04-06T12:30:14;98996.91;;;13.81;53.36
11343;BME280;5726;42.160;24.746;2023-04-06T12:32:40;98996.91;;;13.81;53.09
11343;BME280;5726;42.160;24.746;2023-04-06T12:35:05;98997.69;;;13.73;53.49
11343;BME280;5726;42.160;24.746;2023-04-06T12:37:34;98996.59;;;13.74;53.36
11343;BME280;5726;42.160;24.746;2023-04-06T12:39:59;98992.59;;;13.88;52.44
11343;BME280;5726;42.160;24.746;2023-04-06T12:42:25;99005.06;;;14.01;51.29
11343;BME280;5726;42.160;24.746;2023-04-06T12:44:51;98992.84;;;14.12;51.54
11343;BME280;5726;42.160;24.746;2023-04-06T12:47:17;98994.53;;;13.79;53.58
11343;BME280;5726;42.160;24.746;2023-04-06T12:49:43;98991.97;;;13.74;52.42
11343;BME280;5726;42.160;24.746;2023-04-06T12:52:09;98983.28;;;13.69;52.77
11343;BME280;5726;42.160;24.746;2023-04-06T12:54:34;98990.03;;;13.91;53.19
11343;BME280;5726;42.160;24.746;2023-04-06T12:57:00;98980.66;;;14.06;52.73
11343;BME280;5726;42.160;24.746;2023-04-06T12:59:26;98976.81;;;14.15;51.60
11343;BME280;5726;42.160;24.746;2023-04-06T13:01:51;98979.28;;;14.29;51.64
11343;BME280;5726;42.160;24.746;2023-04-06T13:04:17;98976.69;;;14.12;51.52
11343;BME280;5726;42.160;24.746;2023-04-06T13:06:43;98981.56;;;14.18;51.03